createdAt,value
2022-12-22T00:01:48.048Z,10.30
2022-12-22T00:04:32.722Z,10.20
2022-12-22T00:07:17.948Z,10.20
2022-12-22T00:10:00.622Z,10.20
2022-12-22T00:12:44.206Z,10.20
2022-12-22T00:15:31.598Z,10.10
2022-12-22T00:18:14.430Z,10.10
2022-12-22T00:20:58.038Z,10.10
2022-12-22T00:23:43.196Z,10.10
2022-12-22T00:26:26.286Z,10.10
2022-12-22T00:29:08.936Z,10.00
2022-12-22T00:31:51.753Z,10.00
2022-12-22T00:34:37.851Z,10.00
2022-12-22T00:37:20.344Z,9.90
2022-12-22T00:40:06.251Z,9.90
2022-12-22T00:42:48.769Z,9.80
2022-12-22T00:45:31.755Z,9.80
2022-12-22T00:48:15.312Z,9.80
2022-12-22T00:50:57.916Z,9.80
2022-12-22T00:53:40.677Z,9.80
2022-12-22T00:56:26.946Z,9.80
2022-12-22T00:59:13.110Z,9.80
2022-12-22T01:01:55.831Z,9.90
2022-12-22T01:04:38.488Z,9.90
2022-12-22T01:07:21.721Z,9.80
2022-12-22T01:10:08.026Z,9.90
2022-12-22T01:12:55.973Z,9.90
2022-12-22T01:15:39.946Z,9.90
2022-12-22T01:18:23.238Z,9.90
2022-12-22T01:21:07.331Z,9.90
2022-12-22T01:23:50.200Z,9.80
2022-12-22T01:26:32.757Z,9.80
2022-12-22T01:29:17.941Z,9.70
2022-12-22T01:32:00.587Z,9.70
2022-12-22T01:34:43.183Z,9.70
2022-12-22T01:37:25.898Z,9.80
2022-12-22T01:40:08.459Z,9.80
2022-12-22T01:42:51.381Z,9.80
2022-12-22T01:45:42.966Z,9.80
2022-12-22T01:48:31.271Z,9.90
2022-12-22T01:51:20.052Z,9.90
2022-12-22T01:54:03.395Z,9.90
2022-12-22T01:56:47.481Z,10.00
2022-12-22T01:59:30.108Z,10.00
2022-12-22T02:02:21.612Z,10.00
2022-12-22T02:05:05.037Z,10.00
2022-12-22T02:08:11.141Z,10.00
2022-12-22T02:11:14.115Z,10.00
2022-12-22T02:14:14.745Z,10.10
2022-12-22T02:17:10.520Z,10.10
2022-12-22T02:20:42.130Z,10.10
2022-12-22T02:23:42.093Z,10.10
2022-12-22T02:26:43.976Z,10.10
2022-12-22T02:29:28.556Z,10.10
2022-12-22T02:32:11.926Z,10.20
2022-12-22T02:34:54.933Z,10.30
2022-12-22T02:37:47.368Z,10.30
2022-12-22T02:40:42.308Z,10.30
2022-12-22T02:43:42.971Z,10.30
2022-12-22T02:46:36.792Z,10.30
2022-12-22T02:49:31.431Z,10.20
2022-12-22T02:52:26.014Z,10.20
2022-12-22T02:55:08.777Z,10.20
2022-12-22T02:57:51.334Z,10.20
2022-12-22T03:00:39.828Z,10.30
2022-12-22T03:03:22.728Z,10.30
2022-12-22T03:06:05.407Z,10.30
2022-12-22T03:08:49.958Z,10.30
2022-12-22T03:11:32.486Z,10.30
2022-12-22T03:14:15.087Z,10.30
2022-12-22T03:17:00.153Z,10.30
2022-12-22T03:19:42.694Z,10.30
2022-12-22T03:22:25.193Z,10.30
2022-12-22T03:25:10.695Z,10.30
2022-12-22T03:27:40.795Z,10.30
2022-12-22T03:30:14.270Z,10.40
2022-12-22T03:32:46.940Z,10.30
2022-12-22T03:35:17.242Z,10.40
2022-12-22T03:37:47.296Z,10.40
2022-12-22T03:40:17.907Z,10.40
2022-12-22T03:43:00.514Z,10.40
2022-12-22T03:45:44.366Z,10.40
2022-12-22T03:48:21.033Z,10.40
2022-12-22T03:50:51.269Z,10.40
2022-12-22T03:53:21.415Z,10.30
2022-12-22T03:55:51.619Z,10.30
2022-12-22T03:58:21.655Z,10.30
2022-12-22T04:00:51.843Z,10.30
2022-12-22T04:03:24.643Z,10.30
2022-12-22T04:05:54.768Z,10.30
2022-12-22T04:08:24.823Z,10.30
2022-12-22T04:11:07.438Z,10.20
2022-12-22T04:13:37.516Z,10.20
2022-12-22T04:16:08.415Z,10.20
2022-12-22T04:18:44.157Z,10.30
2022-12-22T04:21:16.541Z,10.30
2022-12-22T04:23:51.305Z,10.30
2022-12-22T04:26:22.280Z,10.40
2022-12-22T04:28:55.944Z,10.40
2022-12-22T04:31:26.684Z,10.40
2022-12-22T04:33:59.382Z,10.40
2022-12-22T04:36:29.526Z,10.40
2022-12-22T04:38:59.663Z,10.40
2022-12-22T04:41:29.815Z,10.40
2022-12-22T04:43:59.923Z,10.30
2022-12-22T04:46:30.173Z,10.30
2022-12-22T04:49:02.949Z,10.40
2022-12-22T04:51:33.032Z,10.40
2022-12-22T04:54:03.106Z,10.40
2022-12-22T04:56:33.300Z,10.40
2022-12-22T04:59:03.356Z,10.40
2022-12-22T05:01:33.583Z,10.50
2022-12-22T05:04:06.509Z,10.50
2022-12-22T05:06:36.649Z,10.50
2022-12-22T05:09:07.198Z,10.40
2022-12-22T05:11:37.382Z,10.40
2022-12-22T05:14:07.699Z,10.40
2022-12-22T05:16:37.885Z,10.40
2022-12-22T05:19:10.747Z,10.30
2022-12-22T05:21:40.964Z,10.40
2022-12-22T05:24:12.464Z,10.40
2022-12-22T05:26:42.630Z,10.40
2022-12-22T05:29:12.732Z,10.40
2022-12-22T05:31:47.162Z,10.50
2022-12-22T05:34:22.699Z,10.50
2022-12-22T05:36:52.903Z,10.60
2022-12-22T05:39:23.029Z,10.50
2022-12-22T05:41:53.166Z,10.40
2022-12-22T05:44:23.266Z,10.30
2022-12-22T05:46:54.447Z,10.30
2022-12-22T05:49:27.267Z,10.30
2022-12-22T05:51:57.542Z,10.30
2022-12-22T05:54:27.637Z,10.20
2022-12-22T05:56:57.794Z,10.20
2022-12-22T05:59:27.826Z,10.10
2022-12-22T06:01:57.965Z,10.10
2022-12-22T06:04:33.959Z,10.10
2022-12-22T06:07:04.126Z,10.00
2022-12-22T06:09:37.268Z,10.00
2022-12-22T06:12:08.321Z,10.00
2022-12-22T06:14:40.681Z,10.00
2022-12-22T06:17:19.534Z,10.00
2022-12-22T06:19:52.178Z,10.10
2022-12-22T06:22:22.330Z,10.10
2022-12-22T06:24:52.385Z,10.10
2022-12-22T06:27:24.736Z,10.10
2022-12-22T06:29:55.038Z,10.10
2022-12-22T06:32:25.148Z,10.00
2022-12-22T06:34:57.858Z,10.00
2022-12-22T06:37:27.958Z,10.10
2022-12-22T06:39:58.151Z,10.20
2022-12-22T06:42:40.755Z,10.30
2022-12-22T06:45:15.358Z,10.20
2022-12-22T06:47:45.477Z,10.10
2022-12-22T06:50:18.378Z,10.10
2022-12-22T06:52:48.548Z,10.00
2022-12-22T06:55:18.954Z,10.00
2022-12-22T06:57:49.161Z,10.00
2022-12-22T07:00:20.379Z,10.00
2022-12-22T07:02:50.621Z,9.90
2022-12-22T07:05:23.885Z,9.80
2022-12-22T07:07:54.125Z,9.90
2022-12-22T07:10:44.334Z,9.80
2022-12-22T07:13:24.664Z,9.80
2022-12-22T07:16:00.650Z,9.80
2022-12-22T07:18:33.928Z,9.80
2022-12-22T07:21:12.769Z,9.90
2022-12-22T07:23:44.180Z,10.00
2022-12-22T07:26:16.323Z,10.00
2022-12-22T07:28:47.618Z,9.90
2022-12-22T07:31:20.920Z,9.90
2022-12-22T07:33:51.133Z,9.90
2022-12-22T07:36:23.946Z,9.90
2022-12-22T07:38:55.288Z,10.00
2022-12-22T07:41:37.877Z,10.00
2022-12-22T07:44:08.794Z,10.10
2022-12-22T07:46:42.349Z,10.10
2022-12-22T07:49:27.309Z,10.00
2022-12-22T07:52:00.741Z,10.00
2022-12-22T07:54:35.237Z,9.90
2022-12-22T07:57:08.283Z,10.00
2022-12-22T07:59:41.168Z,10.00
2022-12-22T08:02:19.496Z,9.90
2022-12-22T08:04:49.754Z,10.00
2022-12-22T08:07:22.447Z,9.90
2022-12-22T08:09:52.505Z,9.90
2022-12-22T08:12:22.666Z,9.90
2022-12-22T08:14:53.105Z,9.80
2022-12-22T08:17:32.274Z,9.80
2022-12-22T08:20:02.518Z,9.90
2022-12-22T08:22:35.269Z,9.90
2022-12-22T08:25:05.531Z,10.00
2022-12-22T08:27:47.456Z,10.00
2022-12-22T08:30:18.308Z,10.00
2022-12-22T08:32:53.374Z,10.10
2022-12-22T08:35:26.220Z,10.00
2022-12-22T08:38:01.105Z,10.10
2022-12-22T08:40:34.922Z,10.00
2022-12-22T08:43:14.761Z,10.10
2022-12-22T08:45:48.154Z,10.00
2022-12-22T08:48:18.267Z,10.10
2022-12-22T08:50:48.405Z,10.10
2022-12-22T08:53:53.924Z,10.10
2022-12-22T08:56:11.686Z,10.10
2022-12-22T08:58:42.094Z,10.20
2022-12-22T09:01:20.426Z,10.20
2022-12-22T09:03:54.164Z,10.10
2022-12-22T09:06:28.427Z,10.20
2022-12-22T09:09:06.243Z,10.20
2022-12-22T09:11:37.432Z,10.10
2022-12-22T09:14:08.578Z,10.10
2022-12-22T09:16:42.973Z,10.10
2022-12-22T09:19:13.765Z,10.00
2022-12-22T09:21:45.530Z,10.00
2022-12-22T09:24:19.793Z,10.00
2022-12-22T09:26:50.215Z,10.00
2022-12-22T09:29:20.491Z,10.00
2022-12-22T09:31:50.659Z,10.00
2022-12-22T09:34:20.778Z,9.90
2022-12-22T09:36:51.751Z,9.90
2022-12-22T09:39:29.108Z,9.90
2022-12-22T09:42:02.027Z,9.90
2022-12-22T09:44:39.336Z,9.90
2022-12-22T09:47:24.049Z,9.90
2022-12-22T09:50:01.362Z,10.00
2022-12-22T09:52:49.192Z,10.00
2022-12-22T09:55:42.792Z,10.00
2022-12-22T09:58:26.693Z,10.10
2022-12-22T10:01:12.562Z,10.20
2022-12-22T10:03:59.898Z,10.20
2022-12-22T10:06:45.787Z,10.30
2022-12-22T10:09:48.728Z,10.20
2022-12-22T10:12:23.495Z,10.30
2022-12-22T10:14:57.042Z,10.50
2022-12-22T10:17:32.370Z,10.60
2022-12-22T10:20:28.149Z,10.90
2022-12-22T10:23:01.949Z,10.80
2022-12-22T10:26:26.951Z,10.90
2022-12-22T10:28:36.568Z,11.10
2022-12-22T10:31:25.335Z,11.30
2022-12-22T10:33:58.844Z,11.50
2022-12-22T10:36:33.311Z,11.50
2022-12-22T10:39:08.049Z,11.30
2022-12-22T10:41:43.463Z,11.20
2022-12-22T10:44:28.550Z,11.20
2022-12-22T10:47:01.500Z,11.10
2022-12-22T10:52:29.121Z,11.30
2022-12-22T10:55:19.389Z,11.50
2022-12-22T10:57:49.668Z,11.70
2022-12-22T11:00:32.448Z,11.70
2022-12-22T11:03:05.139Z,11.90
2022-12-22T11:05:36.715Z,11.90
2022-12-22T11:08:21.137Z,11.90
2022-12-22T11:10:57.929Z,11.80
2022-12-22T11:13:54.369Z,11.70
2022-12-22T11:16:38.054Z,11.70
2022-12-22T11:19:32.654Z,11.70
2022-12-22T11:22:15.915Z,11.80
2022-12-22T11:25:06.268Z,11.90
2022-12-22T11:27:46.696Z,12.40
2022-12-22T11:30:22.744Z,13.30
2022-12-22T11:33:35.812Z,14.00
2022-12-22T11:36:14.092Z,14.50
2022-12-22T11:39:02.761Z,13.90
2022-12-22T11:41:51.747Z,13.20
2022-12-22T11:44:42.675Z,12.70
2022-12-22T11:47:28.461Z,12.50
2022-12-22T11:50:59.389Z,12.20
2022-12-22T11:54:10.826Z,11.90
2022-12-22T11:56:45.533Z,11.70
2022-12-22T11:59:40.903Z,11.40
2022-12-22T12:02:58.469Z,11.40
2022-12-22T12:06:18.598Z,11.30
2022-12-22T12:09:14.444Z,11.30
2022-12-22T12:11:53.293Z,11.40
2022-12-22T12:14:32.296Z,11.40
2022-12-22T12:17:10.891Z,11.50
2022-12-22T12:20:10.135Z,11.60
2022-12-22T12:23:07.257Z,11.50
2022-12-22T12:25:46.898Z,11.40
2022-12-22T12:28:33.832Z,11.50
2022-12-22T12:31:12.308Z,11.40
2022-12-22T12:33:49.287Z,11.50
2022-12-22T12:36:29.777Z,11.50
2022-12-22T12:39:14.936Z,11.30
2022-12-22T12:42:11.546Z,11.20
2022-12-22T12:44:43.399Z,11.10
2022-12-22T12:47:33.744Z,11.00
2022-12-22T12:50:35.258Z,10.90
2022-12-22T12:53:13.353Z,11.00
2022-12-22T12:56:12.359Z,10.90
2022-12-22T12:59:03.938Z,10.90
2022-12-22T13:02:02.821Z,10.90
2022-12-22T13:05:29.817Z,10.90
2022-12-22T13:08:29.449Z,10.80
2022-12-22T13:14:58.538Z,11.00
2022-12-22T13:17:50.673Z,11.00
2022-12-22T13:20:31.310Z,10.90
2022-12-22T13:23:05.177Z,11.00
2022-12-22T13:25:48.144Z,11.00
2022-12-22T13:28:24.535Z,11.00
2022-12-22T13:31:02.639Z,11.00
2022-12-22T13:33:40.050Z,11.00
2022-12-22T13:36:21.578Z,10.90
2022-12-22T13:39:03.412Z,10.90
2022-12-22T13:41:36.987Z,11.10
2022-12-22T13:44:16.664Z,11.20
2022-12-22T13:46:47.204Z,11.40
2022-12-22T13:49:51.550Z,11.50
2022-12-22T13:52:19.250Z,11.40
2022-12-22T13:54:52.679Z,11.30
2022-12-22T13:57:25.983Z,11.30
2022-12-22T13:59:58.861Z,11.30
2022-12-22T14:02:36.384Z,11.20
2022-12-22T14:05:10.982Z,11.10
2022-12-22T14:07:43.477Z,11.00
2022-12-22T14:10:14.161Z,11.10
2022-12-22T14:12:53.479Z,11.10
2022-12-22T14:15:26.273Z,11.20
2022-12-22T14:17:56.550Z,11.40
2022-12-22T14:20:32.354Z,11.50
2022-12-22T14:23:10.868Z,11.70
2022-12-22T14:25:44.314Z,11.80
2022-12-22T14:28:24.250Z,11.70
2022-12-22T14:31:03.077Z,11.60
2022-12-22T14:33:37.231Z,11.40
2022-12-22T14:36:21.726Z,11.30
2022-12-22T14:38:54.429Z,11.20
2022-12-22T14:41:46.825Z,11.00
2022-12-22T14:44:23.688Z,11.00
2022-12-22T14:47:20.145Z,10.90
2022-12-22T14:49:54.301Z,10.90
2022-12-22T14:52:39.804Z,10.90
2022-12-22T14:55:28.731Z,10.80
2022-12-22T14:58:04.835Z,10.80
2022-12-22T15:00:39.457Z,10.80
2022-12-22T15:03:36.655Z,10.80
2022-12-22T15:06:35.162Z,10.70
2022-12-22T15:10:13.634Z,10.60
2022-12-22T15:12:28.955Z,10.70
2022-12-22T15:14:59.055Z,10.60
2022-12-22T15:17:29.191Z,10.50
2022-12-22T15:20:02.890Z,10.50
2022-12-22T15:22:33.067Z,10.50
2022-12-22T15:25:03.198Z,10.60
2022-12-22T15:27:33.319Z,10.60
2022-12-22T15:30:03.402Z,10.60
2022-12-22T15:32:37.816Z,10.60
2022-12-22T15:35:23.578Z,10.60
2022-12-22T15:37:53.678Z,10.60
2022-12-22T15:40:27.080Z,10.60
2022-12-22T15:42:57.392Z,10.60
2022-12-22T15:45:27.572Z,10.60
2022-12-22T15:48:00.885Z,10.50
2022-12-22T15:50:39.415Z,10.50
2022-12-22T15:53:17.267Z,10.50
2022-12-22T15:55:52.106Z,10.40
2022-12-22T15:58:27.293Z,10.40
2022-12-22T16:00:57.570Z,10.40
2022-12-22T16:03:27.849Z,10.30
2022-12-22T16:06:00.843Z,10.20
2022-12-22T16:08:38.965Z,10.30
2022-12-22T16:11:11.512Z,10.30
2022-12-22T16:13:42.220Z,10.30
2022-12-22T16:16:12.473Z,10.20
2022-12-22T16:18:42.730Z,10.20
2022-12-22T16:21:22.915Z,10.20
2022-12-22T16:23:55.618Z,10.20
2022-12-22T16:26:26.049Z,10.20
2022-12-22T16:28:58.322Z,10.20
2022-12-22T16:31:29.860Z,10.10
2022-12-22T16:33:59.987Z,10.10
2022-12-22T16:36:32.682Z,10.10
2022-12-22T16:39:02.749Z,10.00
2022-12-22T16:41:32.920Z,9.80
2022-12-22T16:44:05.970Z,9.80
2022-12-22T16:46:40.659Z,9.80
2022-12-22T16:49:12.120Z,9.90
2022-12-22T16:51:52.023Z,9.90
2022-12-22T16:54:22.398Z,9.90
2022-12-22T16:56:53.299Z,9.90
2022-12-22T16:59:23.423Z,10.00
2022-12-22T17:01:57.724Z,10.00
2022-12-22T17:04:32.734Z,10.10
2022-12-22T17:07:05.883Z,10.10
2022-12-22T17:09:47.793Z,10.10
2022-12-22T17:12:22.677Z,10.10
2022-12-22T17:14:54.410Z,10.10
2022-12-22T17:17:31.899Z,10.10
2022-12-22T17:20:04.353Z,10.10
2022-12-22T17:22:37.351Z,10.10
2022-12-22T17:25:10.667Z,10.20
2022-12-22T17:27:40.816Z,10.20
2022-12-22T17:30:19.935Z,10.20
2022-12-22T17:33:00.622Z,10.10
2022-12-22T17:35:34.671Z,10.20
2022-12-22T17:38:08.437Z,10.10
2022-12-22T17:40:39.603Z,10.10
2022-12-22T17:43:09.811Z,10.10
2022-12-22T17:45:39.983Z,10.20
2022-12-22T17:48:11.462Z,10.10
2022-12-22T17:50:43.814Z,10.10
2022-12-22T17:53:22.393Z,10.00
2022-12-22T17:56:09.302Z,10.00
2022-12-22T17:58:39.594Z,10.00
2022-12-22T18:01:13.525Z,10.00
2022-12-22T18:03:43.880Z,10.00
2022-12-22T18:06:17.981Z,10.10
2022-12-22T18:08:51.927Z,10.10
2022-12-22T18:11:22.615Z,10.20
2022-12-22T18:13:54.692Z,10.20
2022-12-22T18:16:25.237Z,10.20
2022-12-22T18:18:55.513Z,10.20
2022-12-22T18:21:27.985Z,10.20
2022-12-22T18:24:00.766Z,10.30
2022-12-22T18:26:33.845Z,10.30
2022-12-22T18:29:04.665Z,10.30
2022-12-22T18:31:34.909Z,10.40
2022-12-22T18:34:05.097Z,10.50
2022-12-22T18:36:37.310Z,10.50
2022-12-22T18:39:18.886Z,10.50
2022-12-22T18:41:50.079Z,10.50
2022-12-22T18:44:21.096Z,10.50
2022-12-22T18:46:51.609Z,10.50
2022-12-22T18:49:21.800Z,10.60
2022-12-22T18:51:52.052Z,10.50
2022-12-22T18:54:36.453Z,10.50
2022-12-22T18:57:08.635Z,10.50
2022-12-22T18:59:38.811Z,10.50
2022-12-22T19:02:24.644Z,10.50
2022-12-22T19:04:56.273Z,10.50
2022-12-22T19:07:30.589Z,10.50
2022-12-22T19:10:03.290Z,10.50
2022-12-22T19:12:33.475Z,10.50
2022-12-22T19:15:09.828Z,10.50
2022-12-22T19:17:40.022Z,10.50
2022-12-22T19:20:18.300Z,10.40
2022-12-22T19:22:51.000Z,10.40
2022-12-22T19:25:30.078Z,10.50
2022-12-22T19:28:08.621Z,10.50
2022-12-22T19:30:38.792Z,10.50
2022-12-22T19:33:18.600Z,10.40
2022-12-22T19:35:48.743Z,10.30
2022-12-22T19:38:25.580Z,10.30
2022-12-22T19:41:04.561Z,10.30
2022-12-22T19:43:35.216Z,10.30
2022-12-22T19:46:07.573Z,10.40
2022-12-22T19:48:37.826Z,10.40
2022-12-22T19:51:13.129Z,10.40
2022-12-22T19:53:46.165Z,10.40
2022-12-22T19:56:26.697Z,10.40
2022-12-22T19:58:59.113Z,10.40
2022-12-22T20:01:29.585Z,10.40
2022-12-22T20:03:59.839Z,10.50
2022-12-22T20:06:30.285Z,10.50
2022-12-22T20:09:03.259Z,10.50
2022-12-22T20:11:36.665Z,10.50
2022-12-22T20:14:06.875Z,10.50
2022-12-22T20:16:37.044Z,10.40
2022-12-22T20:19:08.452Z,10.30
2022-12-22T20:21:38.729Z,10.30
2022-12-22T20:24:10.927Z,10.20
2022-12-22T20:26:48.595Z,10.20
2022-12-22T20:29:22.095Z,10.20
2022-12-22T20:31:52.288Z,10.20
2022-12-22T20:34:22.647Z,10.10
2022-12-22T20:36:52.850Z,10.10
2022-12-22T20:39:22.959Z,10.10
2022-12-22T20:41:55.627Z,10.20
2022-12-22T20:44:28.039Z,10.20
2022-12-22T20:46:58.247Z,10.20
2022-12-22T20:49:28.490Z,10.10
2022-12-22T20:52:01.316Z,10.10
2022-12-22T20:54:31.504Z,10.10
2022-12-22T20:57:04.228Z,10.10
2022-12-22T20:59:35.777Z,10.00
2022-12-22T21:02:08.573Z,10.00
2022-12-22T21:04:39.372Z,10.00
2022-12-22T21:07:09.432Z,9.90
2022-12-22T21:09:39.592Z,9.90
2022-12-22T21:12:14.936Z,9.90
2022-12-22T21:14:45.027Z,9.90
2022-12-22T21:17:19.774Z,9.90
2022-12-22T21:19:50.512Z,9.90
2022-12-22T21:22:20.699Z,9.90
2022-12-22T21:24:50.796Z,9.90
2022-12-22T21:27:25.006Z,9.90
2022-12-22T21:29:55.095Z,9.90
2022-12-22T21:32:27.575Z,9.90
2022-12-22T21:35:05.866Z,9.90
2022-12-22T21:37:38.546Z,9.90
2022-12-22T21:40:24.853Z,9.90
2022-12-22T21:43:00.503Z,9.90
2022-12-22T21:45:39.572Z,9.90
2022-12-22T21:48:16.456Z,9.90
2022-12-22T21:50:46.816Z,9.90
2022-12-22T21:53:22.146Z,9.90
2022-12-22T21:55:53.279Z,9.80
2022-12-22T21:58:26.084Z,9.80
2022-12-22T22:00:56.194Z,9.80
2022-12-22T22:03:27.163Z,9.80
2022-12-22T22:05:58.053Z,9.80
2022-12-22T22:08:28.219Z,9.90
2022-12-22T22:10:58.508Z,9.80
2022-12-22T22:13:31.285Z,9.80
2022-12-22T22:16:04.359Z,9.80
2022-12-22T22:18:35.232Z,9.80
2022-12-22T22:21:05.432Z,9.80
2022-12-22T22:23:35.622Z,9.80
2022-12-22T22:26:08.593Z,9.80
2022-12-22T22:28:41.329Z,9.70
2022-12-22T22:31:15.221Z,9.70
2022-12-22T22:33:45.382Z,9.80
2022-12-22T22:36:16.681Z,9.80
2022-12-22T22:38:47.027Z,9.80
2022-12-22T22:41:17.111Z,9.80
2022-12-22T22:43:49.772Z,9.70
2022-12-22T22:46:19.948Z,9.70
2022-12-22T22:48:51.192Z,9.70
2022-12-22T22:51:21.347Z,9.70
2022-12-22T22:53:51.459Z,9.70
2022-12-22T22:56:21.578Z,9.70
2022-12-22T22:58:54.287Z,9.70
2022-12-22T23:01:24.515Z,9.60
2022-12-22T23:03:54.821Z,9.60
2022-12-22T23:06:25.075Z,9.60
2022-12-22T23:08:55.225Z,9.60
2022-12-22T23:11:25.417Z,9.60
2022-12-22T23:13:59.676Z,9.60
2022-12-22T23:16:37.378Z,9.60
2022-12-22T23:19:08.460Z,9.60
2022-12-22T23:21:38.883Z,9.60
2022-12-22T23:24:10.157Z,9.60
2022-12-22T23:26:41.997Z,9.60
2022-12-22T23:29:14.919Z,9.60
2022-12-22T23:31:45.123Z,9.60
2022-12-22T23:34:15.914Z,9.50
2022-12-22T23:36:46.067Z,9.50
2022-12-22T23:39:16.572Z,9.60
2022-12-22T23:41:46.780Z,9.60
2022-12-22T23:44:19.626Z,9.60
2022-12-22T23:46:49.918Z,9.60
2022-12-22T23:49:20.007Z,9.60
2022-12-22T23:51:50.093Z,9.50
2022-12-22T23:54:20.238Z,9.50
2022-12-22T23:56:50.361Z,9.50
2022-12-22T23:59:23.364Z,9.50
